Bissen, Luxembourg
Current Conditions -  °F | °C
As of 2:50 PM on Saturday 20 Dec 2014 (Local Time) from ELLX Reporting Station
Moderate Rain Moderate Rain  
Wind Chill: 28°   Ceiling: 1000
Heat Index: 39°   Visibility: 1.8mi
Dew Point: 37°   Wind: 24mph
Humidity: 93%   Direction: 280°W
Pressure: 30.21"   Gusts: 37mph
Location:  49.79°N, 6.07°E
Report Text: ELLX 201350Z 28021G32KT 240V320 3000 RA BR SCT007 BKN010 04/03 Q1023 NOSIG
Loading
Personal Weather Stations






























Interactive Weather Map New forecast layout! Learn more

10-Day Weather Forecast

Advertisements
Track Severe Weather on mobile